Time;durP1;ratioP1;P1;durP2;ratioP2;P2;SDS_P1;SDS_P2;PMS_P1;PMS_P2;Temp;Humidity;BMP_temperature;BMP_pressure;BME280_temperature;BME280_humidity;BME280_pressure;Samples;Min_cycle;Max_cycle;Signal;HPM_P1;HPM_P2
2023/09/20 00:02:45;;;;;;;4.20;2.55;;;;;12.10;96321.00;;;;8346288;28;20228;-69
2023/09/20 00:06:55;;;;;;;3.83;3.20;;;;;12.10;96326.00;;;;8343521;28;20323;-68
2023/09/20 00:10:58;;;;;;;4.13;2.80;;;;;12.10;96318.00;;;;8338763;28;20669;-68
2023/09/20 00:15:01;;;;;;;3.47;2.67;;;;;12.00;96315.00;;;;8352482;28;20205;-68
2023/09/20 00:19:08;;;;;;;4.55;2.85;;;;;11.90;96316.00;;;;8351871;28;20300;-69
2023/09/20 00:23:17;;;;;;;5.80;2.80;;;;;11.90;96318.00;;;;8347020;28;20197;-69
2023/09/20 00:27:23;;;;;;;5.20;2.67;;;;;11.80;96325.00;;;;8347244;28;20277;-69
2023/09/20 00:31:29;;;;;;;4.82;2.90;;;;;11.80;96319.00;;;;8350576;28;20338;-69
2023/09/20 00:35:40;;;;;;;4.88;3.10;;;;;11.70;96308.00;;;;8350904;28;20642;-69
2023/09/20 00:39:44;;;;;;;3.33;2.78;;;;;11.60;96298.00;;;;8341146;28;20201;-69
2023/09/20 00:43:47;;;;;;;3.50;2.90;;;;;11.60;96300.00;;;;8352260;28;20211;-69
2023/09/20 00:47:55;;;;;;;3.92;3.20;;;;;11.50;96303.00;;;;8347078;28;20242;-69
2023/09/20 00:52:03;;;;;;;10.48;3.03;;;;;11.40;96300.00;;;;8339314;28;20204;-69
2023/09/20 00:56:12;;;;;;;2.90;2.60;;;;;11.30;96291.00;;;;8349908;28;20213;-69
2023/09/20 01:00:21;;;;;;;4.85;3.40;;;;;11.20;96294.00;;;;8342778;28;20205;-69
2023/09/20 01:04:30;;;;;;;3.60;3.20;;;;;11.10;96291.00;;;;8343995;28;20633;-69
2023/09/20 01:08:36;;;;;;;4.93;3.33;;;;;11.10;96295.00;;;;8348180;28;20892;-69
2023/09/20 01:12:41;;;;;;;3.85;3.25;;;;;11.10;96289.00;;;;8343778;28;20262;-69
2023/09/20 01:16:44;;;;;;;6.82;3.30;;;;;11.20;96291.00;;;;8341905;28;20298;-69
2023/09/20 01:20:47;;;;;;;4.03;3.17;;;;;11.10;96293.00;;;;8345664;28;20205;-68
2023/09/20 01:24:55;;;;;;;4.38;3.42;;;;;11.00;96298.00;;;;8348693;28;20269;-68
2023/09/20 01:28:58;;;;;;;4.95;3.58;;;;;11.00;96289.00;;;;8341499;28;20224;-68
2023/09/20 01:33:06;;;;;;;5.93;3.42;;;;;11.00;96286.00;;;;8341304;28;20192;-68
2023/09/20 01:37:10;;;;;;;7.90;3.70;;;;;11.00;96285.00;;;;8349172;28;20294;-68
2023/09/20 01:41:18;;;;;;;4.25;2.75;;;;;11.00;96277.00;;;;8347546;28;20212;-68
2023/09/20 01:45:23;;;;;;;5.72;3.60;;;;;11.00;96278.00;;;;8345508;28;20825;-68
2023/09/20 01:49:27;;;;;;;4.88;3.63;;;;;11.00;96279.00;;;;8345509;28;20330;-68
2023/09/20 01:53:33;;;;;;;3.70;2.80;;;;;10.90;96272.00;;;;8346841;28;20550;-68
2023/09/20 01:57:38;;;;;;;5.55;3.70;;;;;10.80;96264.00;;;;8346510;28;20197;-68
2023/09/20 02:01:42;;;;;;;4.50;3.33;;;;;10.80;96261.00;;;;8344396;28;20236;-68
2023/09/20 02:05:47;;;;;;;6.38;3.60;;;;;10.80;96259.00;;;;8342698;28;20903;-68
2023/09/20 02:09:51;;;;;;;6.45;3.90;;;;;10.70;96258.00;;;;8345298;28;20733;-67
2023/09/20 02:13:56;;;;;;;6.35;4.00;;;;;10.70;96255.00;;;;8346276;28;20902;-67
2023/09/20 02:17:59;;;;;;;29.80;5.15;;;;;10.70;96249.00;;;;8346477;28;20744;-67
2023/09/20 02:22:08;;;;;;;5.43;3.75;;;;;10.80;96257.00;;;;8343130;28;20225;-66
2023/09/20 02:26:12;;;;;;;9.50;3.90;;;;;10.80;96260.00;;;;8342070;28;20694;-68
2023/09/20 02:30:24;;;;;;;7.80;3.65;;;;;10.70;96266.00;;;;8345516;28;20211;-68
2023/09/20 02:34:29;;;;;;;6.57;3.70;;;;;10.70;96269.00;;;;8345954;28;20199;-68
2023/09/20 02:38:37;;;;;;;5.47;3.90;;;;;10.60;96264.00;;;;8344641;28;20642;-68
2023/09/20 02:42:42;;;;;;;5.75;3.97;;;;;10.60;96266.00;;;;8347004;28;20196;-68
2023/09/20 02:46:48;;;;;;;5.90;4.28;;;;;10.60;96268.00;;;;8343708;28;20585;-68
2023/09/20 02:50:52;;;;;;;12.00;5.38;;;;;10.60;96268.00;;;;8344646;28;20235;-68
2023/09/20 02:54:55;;;;;;;8.48;4.75;;;;;10.60;96269.00;;;;8344997;28;20199;-68
2023/09/20 02:59:01;;;;;;;9.35;4.82;;;;;10.70;96270.00;;;;8350292;28;20304;-68
2023/09/20 03:03:07;;;;;;;8.27;5.32;;;;;10.80;96274.00;;;;8376789;22;20234;-68
2023/09/20 03:07:11;;;;;;;8.55;4.90;;;;;10.80;96273.00;;;;8352012;28;20256;-68
2023/09/20 03:11:21;;;;;;;8.35;4.97;;;;;10.80;96278.00;;;;8349405;28;20204;-68
2023/09/20 03:15:25;;;;;;;13.43;5.75;;;;;10.80;96266.00;;;;8347860;28;20344;-68
2023/09/20 03:19:31;;;;;;;6.75;4.35;;;;;10.80;96262.00;;;;8353138;28;20247;-68
2023/09/20 03:23:35;;;;;;;11.43;5.88;;;;;10.90;96261.00;;;;8351614;28;20202;-68
2023/09/20 03:27:40;;;;;;;8.27;4.95;;;;;10.90;96269.00;;;;8352041;28;20271;-68
2023/09/20 03:31:44;;;;;;;9.45;5.05;;;;;10.90;96267.00;;;;8350128;28;20223;-68
2023/09/20 03:35:49;;;;;;;11.07;5.13;;;;;10.80;96259.00;;;;8353121;28;20205;-68
2023/09/20 03:39:52;;;;;;;9.80;5.65;;;;;10.80;96262.00;;;;8351217;28;20292;-68
2023/09/20 03:43:58;;;;;;;9.65;5.95;;;;;10.80;96265.00;;;;8350623;28;20299;-67
2023/09/20 03:48:06;;;;;;;10.02;6.05;;;;;10.80;96260.00;;;;8350105;28;20311;-67
2023/09/20 03:52:11;;;;;;;8.82;5.60;;;;;10.80;96262.00;;;;8351858;28;20189;-67
2023/09/20 03:56:16;;;;;;;7.78;5.30;;;;;10.70;96261.00;;;;8348435;28;20211;-68
2023/09/20 04:00:28;;;;;;;7.15;5.18;;;;;10.70;96257.00;;;;8348448;28;20203;-68
2023/09/20 04:04:35;;;;;;;12.93;5.78;;;;;10.60;96260.00;;;;8348856;28;20312;-68
2023/09/20 04:08:42;;;;;;;9.00;5.03;;;;;10.60;96258.00;;;;8348766;28;20608;-68
2023/09/20 04:12:47;;;;;;;8.57;5.60;;;;;10.60;96250.00;;;;8350350;28;20213;-68
2023/09/20 04:16:57;;;;;;;7.18;5.13;;;;;10.60;96246.00;;;;8342693;28;20207;-68
2023/09/20 04:21:04;;;;;;;10.30;6.35;;;;;10.60;96243.00;;;;8349725;28;20223;-67
2023/09/20 04:25:10;;;;;;;9.23;5.68;;;;;10.60;96239.00;;;;8351584;28;20204;-67
2023/09/20 04:29:14;;;;;;;8.00;5.47;;;;;10.70;96239.00;;;;8347925;28;20252;-67
2023/09/20 04:33:24;;;;;;;34.08;13.93;;;;;10.90;96235.00;;;;8350141;28;20280;-67
2023/09/20 04:37:30;;;;;;;18.77;8.05;;;;;11.00;96246.00;;;;8342421;28;20201;-67
2023/09/20 04:41:37;;;;;;;17.02;9.77;;;;;11.00;96245.00;;;;8351088;28;20546;-67
2023/09/20 04:45:41;;;;;;;13.63;6.68;;;;;11.10;96242.00;;;;8347758;28;20222;-68
2023/09/20 04:49:44;;;;;;;15.43;8.10;;;;;11.10;96238.00;;;;8347547;28;20298;-67
2023/09/20 04:53:48;;;;;;;9.38;6.03;;;;;11.00;96246.00;;;;8346709;28;20286;-68
2023/09/20 04:57:53;;;;;;;9.15;6.35;;;;;10.90;96249.00;;;;8327851;28;20306;-68
2023/09/20 05:01:56;;;;;;;8.02;5.10;;;;;10.80;96250.00;;;;8348877;28;20314;-68
2023/09/20 05:06:05;;;;;;;9.57;4.70;;;;;10.70;96252.00;;;;8335265;28;21472;-68
2023/09/20 05:10:10;;;;;;;9.95;4.82;;;;;10.60;96249.00;;;;8343143;28;20351;-68
2023/09/20 05:14:17;;;;;;;10.82;5.10;;;;;10.60;96251.00;;;;8296232;28;20248;-68
2023/09/20 05:18:28;;;;;;;9.10;5.97;;;;;10.60;96259.00;;;;8336389;28;21908;-67
2023/09/20 05:22:35;;;;;;;9.57;5.68;;;;;10.80;96252.00;;;;8339715;28;20642;-66
2023/09/20 05:26:39;;;;;;;8.15;5.38;;;;;10.80;96257.00;;;;8344386;28;20201;-66
2023/09/20 05:30:46;;;;;;;14.07;7.35;;;;;11.00;96261.00;;;;8333725;28;20445;-66
2023/09/20 05:34:52;;;;;;;14.93;7.53;;;;;11.30;96258.00;;;;8341014;28;20910;-67
2023/09/20 05:39:00;;;;;;;14.40;7.68;;;;;11.60;96259.00;;;;8334644;28;22116;-67
2023/09/20 05:43:05;;;;;;;13.43;6.70;;;;;11.80;96263.00;;;;8343246;28;20623;-67
2023/09/20 05:47:10;;;;;;;16.00;7.72;;;;;12.10;96277.00;;;;8343012;28;20204;-68
2023/09/20 05:51:15;;;;;;;15.35;6.32;;;;;12.30;96275.00;;;;8344118;28;20255;-68
2023/09/20 05:55:22;;;;;;;26.52;12.07;;;;;12.60;96276.00;;;;8336806;28;20189;-67
2023/09/20 05:59:29;;;;;;;25.77;11.48;;;;;12.90;96295.00;;;;8344608;28;20762;-68
2023/09/20 06:03:33;;;;;;;25.88;13.00;;;;;13.30;96287.00;;;;8341918;28;20319;-68
2023/09/20 06:07:40;;;;;;;35.60;14.68;;;;;13.70;96286.00;;;;8341572;28;20287;-66
2023/09/20 06:11:43;;;;;;;36.97;13.25;;;;;14.00;96290.00;;;;8344301;28;21163;-66
2023/09/20 06:15:47;;;;;;;30.42;14.48;;;;;14.20;96288.00;;;;8341232;28;20245;-66
2023/09/20 06:19:56;;;;;;;30.40;12.43;;;;;14.30;96289.00;;;;8340423;28;20303;-67
2023/09/20 06:23:59;;;;;;;32.58;14.38;;;;;14.40;96288.00;;;;8336034;28;20200;-69
2023/09/20 06:28:07;;;;;;;31.85;13.88;;;;;14.50;96301.00;;;;8339886;28;20230;-68
2023/09/20 06:32:10;;;;;;;35.83;14.40;;;;;14.70;96302.00;;;;8343007;28;20736;-68
2023/09/20 06:36:21;;;;;;;29.50;13.00;;;;;14.80;96306.00;;;;8342017;28;20201;-68
2023/09/20 06:40:33;;;;;;;30.85;12.82;;;;;14.90;96306.00;;;;8339503;28;20204;-67
2023/09/20 06:44:39;;;;;;;26.67;14.23;;;;;15.00;96301.00;;;;8341144;28;20212;-66
2023/09/20 06:48:43;;;;;;;29.17;14.15;;;;;15.10;96293.00;;;;8343932;28;20373;-67
2023/09/20 06:52:48;;;;;;;26.80;13.85;;;;;15.20;96300.00;;;;8345692;28;20228;-67
2023/09/20 06:56:51;;;;;;;26.75;13.50;;;;;15.30;96294.00;;;;8346186;28;20211;-67
2023/09/20 07:00:59;;;;;;;25.05;13.45;;;;;15.40;96289.00;;;;8341618;28;20278;-65
2023/09/20 07:05:05;;;;;;;26.05;13.25;;;;;15.40;96290.00;;;;8342240;28;20219;-67
2023/09/20 07:09:09;;;;;;;23.58;12.82;;;;;15.50;96288.00;;;;8324880;28;20270;-67
2023/09/20 07:13:19;;;;;;;19.60;12.25;;;;;15.60;96300.00;;;;8343452;28;20535;-68
2023/09/20 07:17:26;;;;;;;27.45;13.32;;;;;15.90;96290.00;;;;8344611;28;20201;-67
2023/09/20 07:21:29;;;;;;;25.13;12.63;;;;;16.10;96296.00;;;;8339965;28;20238;-67
2023/09/20 07:25:35;;;;;;;16.52;11.13;;;;;16.30;96289.00;;;;8344063;28;20224;-67
2023/09/20 07:29:39;;;;;;;16.15;10.50;;;;;16.40;96285.00;;;;8325278;28;20327;-67
2023/09/20 07:33:45;;;;;;;14.75;10.07;;;;;16.50;96300.00;;;;8343441;28;20788;-67
2023/09/20 07:37:49;;;;;;;13.30;10.13;;;;;16.50;96293.00;;;;8345379;28;20224;-66
2023/09/20 07:41:58;;;;;;;12.30;8.85;;;;;16.60;96300.00;;;;8337802;28;20687;-66
2023/09/20 07:46:06;;;;;;;9.30;8.20;;;;;16.70;96301.00;;;;8343432;28;20205;-66
2023/09/20 07:50:12;;;;;;;12.38;8.25;;;;;16.90;96304.00;;;;8351452;28;20316;-66
2023/09/20 07:54:17;;;;;;;10.65;7.97;;;;;17.00;96297.00;;;;8344596;28;20199;-67
2023/09/20 07:58:25;;;;;;;10.00;7.90;;;;;17.10;96298.00;;;;8347571;28;20288;-67
2023/09/20 08:02:35;;;;;;;11.10;7.38;;;;;17.40;96299.00;;;;8339286;28;20231;-66
2023/09/20 08:06:40;;;;;;;7.75;6.95;;;;;17.60;96293.00;;;;8349360;28;20211;-66
2023/09/20 08:10:44;;;;;;;8.63;6.65;;;;;17.90;96289.00;;;;8346887;28;20228;-66
2023/09/20 08:15:12;;;;;;;10.88;6.70;;;;;18.10;96285.00;;;;8349942;28;20216;-66
2023/09/20 08:19:21;;;;;;;7.30;6.07;;;;;18.40;96275.00;;;;8347803;28;20247;-67
2023/09/20 09:02:53;;;;;;;7.85;5.10;;;;;22.60;96266.00;;;;8347087;28;20307;-67
2023/09/20 09:06:59;;;;;;;10.80;4.70;;;;;23.10;96253.00;;;;8340381;28;20219;-67
2023/09/20 09:11:02;;;;;;;4.93;4.38;;;;;23.90;96250.00;;;;8347258;28;20311;-67
2023/09/20 09:15:09;;;;;;;4.15;3.75;;;;;24.50;96249.00;;;;8346156;28;20213;-68
2023/09/20 09:19:13;;;;;;;5.70;4.28;;;;;25.00;96257.00;;;;8327089;28;20201;-68
2023/09/20 09:23:38;;;;;;;7.80;4.20;;;;;25.40;96246.00;;;;8343263;28;20209;-68
2023/09/20 09:27:43;;;;;;;5.90;3.90;;;;;25.70;96243.00;;;;8341725;28;20199;-68
2023/09/20 09:31:49;;;;;;;5.65;3.88;;;;;26.00;96246.00;;;;8324504;28;20229;-68
2023/09/20 09:35:53;;;;;;;4.22;3.60;;;;;26.30;96241.00;;;;8327920;28;20192;-68
2023/09/20 09:40:05;;;;;;;3.72;3.30;;;;;26.30;96234.00;;;;8339473;28;20205;-68
2023/09/20 09:44:08;;;;;;;4.55;3.30;;;;;26.50;96232.00;;;;8344468;28;20197;-68
2023/09/20 09:48:13;;;;;;;3.60;3.30;;;;;26.70;96237.00;;;;8343481;28;20193;-68
2023/09/20 09:52:17;;;;;;;4.93;3.42;;;;;27.10;96235.00;;;;8341298;28;20282;-69
2023/09/20 09:56:22;;;;;;;3.88;3.45;;;;;27.10;96240.00;;;;8343402;28;20189;-68
2023/09/20 10:00:28;;;;;;;2.67;2.50;;;;;27.20;96240.00;;;;8318263;28;20273;-68
2023/09/20 10:04:39;;;;;;;6.57;3.20;;;;;27.20;96234.00;;;;8341042;28;20232;-68
2023/09/20 10:08:43;;;;;;;2.83;2.53;;;;;27.40;96227.00;;;;8340197;28;22669;-67
2023/09/20 10:12:49;;;;;;;3.50;2.97;;;;;27.50;96230.00;;;;8339920;28;20208;-68
2023/09/20 10:16:52;;;;;;;3.45;3.03;;;;;27.40;96229.00;;;;8343869;28;20906;-68
2023/09/20 10:21:04;;;;;;;3.47;2.63;;;;;27.40;96219.00;;;;8338644;28;20264;-68
2023/09/20 10:25:29;;;;;;;4.95;2.85;;;;;27.40;96205.00;;;;8343323;28;20514;-68
2023/09/20 10:29:40;;;;;;;2.30;2.20;;;;;27.30;96208.00;;;;8340899;28;20704;-68
2023/09/20 10:33:47;;;;;;;2.50;2.30;;;;;27.30;96206.00;;;;8338709;28;20219;-68
2023/09/20 10:38:25;;;;;;;5.90;2.55;;;;;27.10;96206.00;;;;8342966;28;20204;-67
2023/09/20 10:42:32;;;;;;;3.13;2.08;;;;;27.10;96194.00;;;;8310323;28;20197;-67
2023/09/20 10:46:37;;;;;;;2.83;2.08;;;;;27.10;96190.00;;;;8340597;28;20231;-70
2023/09/20 10:50:47;;;;;;;2.25;2.05;;;;;26.90;96184.00;;;;8335290;28;20232;-70
2023/09/20 10:54:51;;;;;;;4.72;2.20;;;;;27.10;96194.00;;;;8342528;28;20235;-70
2023/09/20 10:58:59;;;;;;;4.15;2.13;;;;;27.30;96189.00;;;;8338701;28;20212;-70
2023/09/20 11:03:13;;;;;;;1.77;1.67;;;;;27.00;96186.00;;;;8328952;28;20290;-69
2023/09/20 11:07:19;;;;;;;2.30;1.73;;;;;27.00;96180.00;;;;8340297;28;20212;-70
2023/09/20 11:11:28;;;;;;;2.05;1.83;;;;;26.90;96165.00;;;;8338792;28;20229;-70
2023/09/20 11:15:36;;;;;;;1.80;1.70;;;;;26.90;96161.00;;;;8339807;28;20271;-70
2023/09/20 11:19:40;;;;;;;2.00;1.90;;;;;27.00;96159.00;;;;8320729;28;20295;-70
2023/09/20 11:23:45;;;;;;;2.10;1.90;;;;;27.10;96163.00;;;;8338505;28;20208;-71
2023/09/20 11:27:50;;;;;;;1.98;1.65;;;;;27.10;96156.00;;;;8341866;28;20200;-70
2023/09/20 11:31:59;;;;;;;2.05;1.85;;;;;27.20;96151.00;;;;8345437;28;20235;-66
2023/09/20 11:36:14;;;;;;;4.88;1.92;;;;;27.20;96141.00;;;;8343237;28;20215;-66
2023/09/20 11:40:18;;;;;;;2.55;1.95;;;;;27.20;96144.00;;;;8344484;28;20205;-64
2023/09/20 11:44:23;;;;;;;3.55;1.90;;;;;27.20;96131.00;;;;8344167;28;20690;-64
2023/09/20 11:48:29;;;;;;;2.10;1.90;;;;;27.10;96127.00;;;;8342936;28;20201;-64
2023/09/20 11:52:34;;;;;;;3.10;1.88;;;;;26.80;96122.00;;;;8343897;28;20290;-64
2023/09/20 11:56:38;;;;;;;2.33;1.80;;;;;26.60;96123.00;;;;8347511;28;20526;-64
2023/09/20 12:00:46;;;;;;;2.00;1.58;;;;;26.50;96120.00;;;;8340040;28;20197;-64
2023/09/20 12:04:52;;;;;;;5.75;1.92;;;;;26.30;96112.00;;;;8343594;28;20304;-64
2023/09/20 12:08:58;;;;;;;2.40;1.83;;;;;26.20;96120.00;;;;8344405;28;20696;-64
2023/09/20 12:13:03;;;;;;;2.00;1.70;;;;;26.30;96110.00;;;;8338969;28;20238;-64
2023/09/20 12:17:07;;;;;;;2.03;1.65;;;;;26.30;96099.00;;;;8344639;28;20274;-64
2023/09/20 12:21:13;;;;;;;1.90;1.77;;;;;26.30;96101.00;;;;8343073;28;20201;-65
2023/09/20 12:25:19;;;;;;;1.88;1.60;;;;;26.30;96086.00;;;;8338266;28;20331;-65
2023/09/20 12:29:23;;;;;;;2.17;2.00;;;;;26.30;96078.00;;;;8335392;28;20542;-64
2023/09/20 12:33:26;;;;;;;5.18;1.80;;;;;26.50;96066.00;;;;8336549;28;20347;-65
2023/09/20 12:37:30;;;;;;;2.08;1.63;;;;;26.50;96064.00;;;;8336737;28;20193;-65
2023/09/20 12:41:38;;;;;;;4.35;1.88;;;;;26.60;96058.00;;;;8336824;28;20760;-65
2023/09/20 12:45:42;;;;;;;1.98;1.63;;;;;26.70;96045.00;;;;8338711;28;20197;-65
2023/09/20 12:49:46;;;;;;;2.13;1.85;;;;;26.70;96044.00;;;;8335882;28;20223;-65
2023/09/20 12:53:53;;;;;;;2.05;1.90;;;;;26.80;96042.00;;;;8340197;28;20193;-65
2023/09/20 12:57:59;;;;;;;4.38;1.52;;;;;26.70;96028.00;;;;8340062;28;20203;-66
2023/09/20 13:02:02;;;;;;;2.75;1.67;;;;;26.70;96028.00;;;;8337569;28;21026;-65
2023/09/20 13:06:07;;;;;;;5.85;1.70;;;;;26.60;96025.00;;;;8341281;28;20288;-65
2023/09/20 13:10:14;;;;;;;3.97;1.85;;;;;26.70;96019.00;;;;8326550;28;20201;-66
2023/09/20 13:14:19;;;;;;;3.45;1.60;;;;;26.70;96016.00;;;;8342777;28;20574;-66
2023/09/20 13:18:23;;;;;;;1.92;1.58;;;;;26.70;96010.00;;;;8337999;28;20201;-65
2023/09/20 13:22:29;;;;;;;1.80;1.48;;;;;26.70;96015.00;;;;8335570;28;20299;-65
2023/09/20 13:26:37;;;;;;;1.98;1.42;;;;;26.70;95998.00;;;;8341182;28;20761;-65
2023/09/20 13:30:44;;;;;;;3.05;1.63;;;;;26.80;95983.00;;;;8336889;28;20225;-65
2023/09/20 13:34:48;;;;;;;2.35;1.73;;;;;26.80;95981.00;;;;8340714;28;20197;-65
2023/09/20 13:38:51;;;;;;;1.85;1.75;;;;;26.90;95978.00;;;;8339668;28;20211;-65
2023/09/20 13:42:54;;;;;;;1.80;1.67;;;;;26.90;95964.00;;;;8338286;28;20215;-65
2023/09/20 13:47:04;;;;;;;3.80;1.50;;;;;27.10;95963.00;;;;8336860;28;20622;-66
2023/09/20 13:51:31;;;;;;;3.67;1.60;;;;;27.20;95964.00;;;;8339966;28;20228;-65
2023/09/20 13:55:34;;;;;;;5.75;2.00;;;;;27.50;95956.00;;;;8339665;28;20297;-66
2023/09/20 13:59:38;;;;;;;1.60;1.48;;;;;27.80;95956.00;;;;8336349;28;20318;-65
2023/09/20 14:03:44;;;;;;;3.10;1.70;;;;;27.90;95959.00;;;;8337526;28;20232;-66
2023/09/20 14:07:49;;;;;;;1.85;1.75;;;;;28.00;95950.00;;;;8341609;28;20199;-65
2023/09/20 14:11:52;;;;;;;2.78;1.90;;;;;28.20;95941.00;;;;8331451;28;20274;-66
2023/09/20 14:15:56;;;;;;;1.63;1.50;;;;;28.20;95931.00;;;;8331643;28;20274;-66
2023/09/20 14:20:09;;;;;;;1.38;1.38;;;;;28.20;95929.00;;;;8317767;28;20236;-66
2023/09/20 14:24:17;;;;;;;1.88;1.60;;;;;28.30;95927.00;;;;8332699;28;20248;-65
2023/09/20 14:28:20;;;;;;;5.80;1.88;;;;;28.50;95914.00;;;;8335270;28;20324;-66
2023/09/20 14:32:23;;;;;;;1.75;1.30;;;;;28.70;95920.00;;;;8331843;28;20752;-67
2023/09/20 14:36:31;;;;;;;1.50;1.40;;;;;28.90;95907.00;;;;8340446;28;20196;-66
2023/09/20 14:40:34;;;;;;;2.35;1.90;;;;;28.90;95913.00;;;;8332173;28;20658;-66
2023/09/20 14:44:37;;;;;;;1.80;1.70;;;;;28.80;95909.00;;;;8334335;28;20283;-66
2023/09/20 14:48:41;;;;;;;1.50;1.40;;;;;28.70;95912.00;;;;8330627;28;20200;-66
2023/09/20 14:52:46;;;;;;;1.70;1.60;;;;;28.60;95910.00;;;;8333561;28;20227;-66
2023/09/20 14:56:53;;;;;;;1.88;1.52;;;;;28.40;95904.00;;;;8343999;28;20261;-66
2023/09/20 15:00:56;;;;;;;1.77;1.67;;;;;28.30;95900.00;;;;8349873;28;20941;-66
2023/09/20 15:05:03;;;;;;;2.10;1.75;;;;;28.30;95885.00;;;;8340441;28;20224;-65
2023/09/20 15:09:09;;;;;;;1.92;1.40;;;;;28.20;95884.00;;;;8344854;28;20201;-66
2023/09/20 15:13:14;;;;;;;8.15;3.70;;;;;28.10;95879.00;;;;8345394;28;20323;-65
2023/09/20 15:17:17;;;;;;;27.23;20.40;;;;;28.10;95875.00;;;;8348307;28;20842;-66
2023/09/20 15:21:22;;;;;;;2.47;2.30;;;;;28.10;95877.00;;;;8347755;28;20669;-66
2023/09/20 15:25:29;;;;;;;17.17;11.43;;;;;28.20;95875.00;;;;8348119;28;20228;-66
2023/09/20 15:29:37;;;;;;;2.50;1.77;;;;;28.20;95870.00;;;;8345862;28;20240;-66
2023/09/20 15:33:43;;;;;;;1.73;1.63;;;;;28.20;95869.00;;;;8343722;28;20279;-67
2023/09/20 15:37:50;;;;;;;3.42;1.83;;;;;28.20;95873.00;;;;8339272;28;20288;-66
2023/09/20 15:41:59;;;;;;;3.15;1.88;;;;;28.20;95868.00;;;;8344286;28;20240;-66
2023/09/20 15:46:02;;;;;;;3.00;1.63;;;;;28.20;95874.00;;;;8340618;28;20264;-66
2023/09/20 15:50:07;;;;;;;4.10;1.77;;;;;28.20;95861.00;;;;8343089;28;20204;-67
2023/09/20 15:54:16;;;;;;;4.03;1.90;;;;;28.20;95856.00;;;;8344533;28;20244;-67
2023/09/20 15:58:26;;;;;;;2.15;1.98;;;;;28.30;95852.00;;;;8347915;28;20304;-67
2023/09/20 16:02:29;;;;;;;4.40;1.80;;;;;28.20;95846.00;;;;8325760;28;20388;-66
2023/09/20 16:06:32;;;;;;;4.00;1.90;;;;;28.20;95851.00;;;;8343163;28;20206;-68
2023/09/20 16:10:35;;;;;;;1.90;1.80;;;;;27.90;95841.00;;;;8346499;28;20225;-66
2023/09/20 16:14:42;;;;;;;2.00;1.90;;;;;27.40;95846.00;;;;8344914;28;20228;-67
2023/09/20 16:18:46;;;;;;;6.32;1.83;;;;;27.00;95840.00;;;;8344442;28;20343;-66
2023/09/20 16:22:51;;;;;;;2.20;2.00;;;;;26.50;95842.00;;;;8341349;28;20239;-66
2023/09/20 16:26:54;;;;;;;2.13;1.85;;;;;26.00;95833.00;;;;8345304;28;20617;-66
2023/09/20 16:30:59;;;;;;;3.33;2.15;;;;;25.60;95833.00;;;;8341879;28;20197;-66
2023/09/20 16:35:05;;;;;;;2.28;2.10;;;;;25.30;95836.00;;;;8343353;28;20228;-66
2023/09/20 16:39:10;;;;;;;2.30;1.80;;;;;25.00;95831.00;;;;8341795;28;20243;-66
2023/09/20 16:43:18;;;;;;;3.17;1.95;;;;;24.70;95825.00;;;;8342928;28;20205;-65
2023/09/20 16:47:27;;;;;;;2.10;1.90;;;;;24.50;95828.00;;;;8341365;28;20776;-66
2023/09/20 16:51:31;;;;;;;2.00;1.90;;;;;24.30;95828.00;;;;8345125;28;20437;-66
2023/09/20 16:55:35;;;;;;;3.42;1.80;;;;;24.00;95822.00;;;;8338894;28;20295;-67
2023/09/20 16:59:42;;;;;;;1.80;1.70;;;;;23.80;95820.00;;;;8342668;28;20236;-66
2023/09/20 17:03:48;;;;;;;3.35;2.10;;;;;23.50;95815.00;;;;8339508;28;20240;-67
2023/09/20 17:07:52;;;;;;;3.28;2.00;;;;;23.30;95807.00;;;;8345662;28;20566;-66
2023/09/20 17:11:58;;;;;;;1.77;1.67;;;;;23.10;95814.00;;;;8343269;28;20315;-67
2023/09/20 17:16:02;;;;;;;3.45;2.00;;;;;22.90;95808.00;;;;8343897;28;20262;-67
2023/09/20 17:20:11;;;;;;;3.10;2.03;;;;;22.60;95800.00;;;;8339395;28;20216;-66
2023/09/20 17:24:16;;;;;;;2.67;1.73;;;;;22.40;95804.00;;;;8323670;28;20196;-66
2023/09/20 17:28:21;;;;;;;5.95;2.30;;;;;22.20;95801.00;;;;8334301;28;20200;-67
2023/09/20 17:32:24;;;;;;;9.95;2.42;;;;;22.00;95810.00;;;;8336556;28;20229;-66
2023/09/20 17:36:29;;;;;;;6.72;2.28;;;;;21.80;95805.00;;;;8332527;28;20204;-65
2023/09/20 17:40:33;;;;;;;12.73;2.60;;;;;21.60;95805.00;;;;8332709;28;20200;-66
2023/09/20 17:44:38;;;;;;;6.97;2.35;;;;;21.40;95804.00;;;;8343652;28;20226;-66
2023/09/20 17:48:43;;;;;;;15.65;2.42;;;;;21.30;95804.00;;;;8338602;28;20354;-67
2023/09/20 17:52:50;;;;;;;17.27;3.03;;;;;21.10;95810.00;;;;8336062;28;21031;-66
2023/09/20 17:56:57;;;;;;;10.05;2.70;;;;;20.90;95807.00;;;;8340656;28;20197;-66
2023/09/20 18:01:01;;;;;;;16.17;2.35;;;;;20.70;95802.00;;;;8340094;28;20200;-65
2023/09/20 18:05:09;;;;;;;5.22;2.50;;;;;20.50;95816.00;;;;8340360;28;20279;-66
2023/09/20 18:09:14;;;;;;;5.95;2.45;;;;;20.30;95810.00;;;;8334217;28;20205;-66
2023/09/20 18:13:17;;;;;;;10.95;2.42;;;;;20.10;95812.00;;;;8341486;28;20224;-66
2023/09/20 18:17:23;;;;;;;5.97;2.40;;;;;19.90;95809.00;;;;8342397;28;20207;-66
2023/09/20 18:21:28;;;;;;;4.20;2.63;;;;;19.60;95820.00;;;;8341530;28;20697;-66
2023/09/20 18:25:39;;;;;;;2.65;2.20;;;;;19.30;95811.00;;;;8338871;28;20200;-66
2023/09/20 18:29:45;;;;;;;4.70;2.80;;;;;19.10;95816.00;;;;8338354;28;20197;-66
2023/09/20 18:33:55;;;;;;;6.22;2.47;;;;;18.70;95806.00;;;;8342734;28;20870;-67
2023/09/20 18:37:59;;;;;;;2.60;1.95;;;;;18.40;95805.00;;;;8340354;28;20204;-68
2023/09/20 18:42:06;;;;;;;8.95;2.55;;;;;18.20;95804.00;;;;8344143;28;20192;-66
2023/09/20 18:46:09;;;;;;;2.63;2.28;;;;;18.10;95808.00;;;;8324624;28;20208;-66
2023/09/20 18:50:20;;;;;;;3.00;2.70;;;;;18.00;95799.00;;;;8343259;28;20304;-66
2023/09/20 18:54:24;;;;;;;3.70;2.78;;;;;17.80;95791.00;;;;8343954;28;20239;-67
2023/09/20 18:58:33;;;;;;;3.88;2.72;;;;;17.60;95782.00;;;;8339051;28;20208;-67
2023/09/20 19:02:36;;;;;;;3.40;2.70;;;;;17.40;95781.00;;;;8322252;28;20745;-67
2023/09/20 19:06:41;;;;;;;5.43;2.75;;;;;17.30;95785.00;;;;8340998;28;20193;-68
2023/09/20 19:10:44;;;;;;;5.38;2.80;;;;;17.20;95786.00;;;;8340357;28;20300;-66
2023/09/20 19:14:50;;;;;;;5.68;2.88;;;;;17.10;95780.00;;;;8339102;28;20520;-67
2023/09/20 19:18:57;;;;;;;2.83;2.58;;;;;17.10;95783.00;;;;8338729;28;20676;-66
2023/09/20 19:23:02;;;;;;;7.05;3.17;;;;;17.00;95773.00;;;;8335796;28;20197;-66
2023/09/20 19:27:10;;;;;;;4.85;2.42;;;;;16.90;95778.00;;;;8342069;28;20590;-67
2023/09/20 19:31:17;;;;;;;7.43;2.67;;;;;16.80;95778.00;;;;8333308;28;20201;-70
2023/09/20 19:35:22;;;;;;;5.25;2.35;;;;;16.80;95774.00;;;;8339172;28;20220;-71
2023/09/20 19:39:33;;;;;;;7.80;2.90;;;;;16.70;95772.00;;;;8343221;28;20205;-71
2023/09/20 19:43:39;;;;;;;4.55;2.67;;;;;16.60;95771.00;;;;8347223;28;20944;-73
2023/09/20 19:47:47;;;;;;;2.83;2.58;;;;;16.50;95772.00;;;;8344235;28;20201;-73
2023/09/20 19:51:52;;;;;;;3.38;2.88;;;;;16.40;95764.00;;;;8342732;28;20200;-71
2023/09/20 19:55:58;;;;;;;5.97;3.20;;;;;16.30;95768.00;;;;8341870;28;20312;-70
2023/09/20 20:00:24;;;;;;;3.72;2.95;;;;;16.20;95769.00;;;;8343887;28;20288;-73
2023/09/20 20:04:38;;;;;;;2.80;2.60;;;;;16.20;95767.00;;;;8341390;28;20220;-72
2023/09/20 20:08:41;;;;;;;4.30;3.13;;;;;16.10;95760.00;;;;8361315;28;20196;-68
2023/09/20 20:12:45;;;;;;;3.33;2.95;;;;;16.00;95757.00;;;;8369272;28;20204;-68
2023/09/20 20:16:52;;;;;;;3.85;3.10;;;;;16.00;95763.00;;;;8369762;28;20204;-67
2023/09/20 20:21:02;;;;;;;4.75;2.80;;;;;16.00;95765.00;;;;8369052;28;20197;-68
2023/09/20 20:25:10;;;;;;;3.65;3.20;;;;;15.90;95769.00;;;;8368393;28;20197;-68
2023/09/20 20:29:18;;;;;;;3.33;3.05;;;;;15.90;95765.00;;;;8368785;28;20645;-69
2023/09/20 20:33:23;;;;;;;6.85;3.10;;;;;15.80;95756.00;;;;8369108;28;20255;-69
2023/09/20 20:37:30;;;;;;;5.40;3.17;;;;;15.80;95759.00;;;;8368601;28;20227;-69
2023/09/20 20:41:36;;;;;;;5.60;3.38;;;;;15.70;95750.00;;;;8369149;28;20185;-69
2023/09/20 20:45:46;;;;;;;3.70;2.92;;;;;15.70;95753.00;;;;8368358;28;20181;-68
2023/09/20 20:49:56;;;;;;;4.85;3.60;;;;;15.60;95747.00;;;;8368497;28;20633;-69
2023/09/20 20:54:00;;;;;;;5.45;3.70;;;;;15.60;95745.00;;;;8367883;28;20216;-70
2023/09/20 20:58:13;;;;;;;4.10;3.60;;;;;15.60;95737.00;;;;8368297;28;20193;-69
2023/09/20 21:02:20;;;;;;;4.22;3.30;;;;;15.50;95734.00;;;;8367685;28;20256;-70
2023/09/20 21:06:23;;;;;;;7.95;3.13;;;;;15.50;95737.00;;;;8368455;28;20231;-69